createdAt,value
2023-07-11T00:03:33.362Z,19.41
2023-07-11T00:08:38.083Z,19.36
2023-07-11T00:13:41.051Z,19.33
2023-07-11T00:18:43.153Z,19.29
2023-07-11T00:23:44.889Z,19.22
2023-07-11T00:28:46.558Z,19.21
2023-07-11T00:33:48.289Z,19.19
2023-07-11T00:38:50.009Z,19.12
2023-07-11T00:43:52.545Z,19.06
2023-07-11T00:48:56.435Z,19.09
2023-07-11T00:53:58.668Z,19.17
2023-07-11T00:59:00.540Z,19.09
2023-07-11T01:04:03.090Z,19.01
2023-07-11T01:09:05.933Z,18.94
2023-07-11T01:14:07.773Z,18.89
2023-07-11T01:19:09.553Z,18.82
2023-07-11T01:24:12.442Z,18.80
2023-07-11T01:29:14.169Z,18.75
2023-07-11T01:34:15.853Z,18.71
2023-07-11T01:39:17.902Z,18.71
2023-07-11T01:44:20.530Z,18.75
2023-07-11T01:49:22.208Z,18.71
2023-07-11T01:54:23.993Z,18.66
2023-07-11T01:59:25.768Z,18.60
2023-07-11T02:04:27.634Z,18.56
2023-07-11T02:09:30.243Z,18.57
2023-07-11T02:14:32.000Z,18.47
2023-07-11T02:19:33.736Z,18.40
2023-07-11T02:24:36.718Z,18.36
2023-07-11T02:29:38.442Z,18.27
2023-07-11T02:34:40.139Z,18.18
2023-07-11T02:39:41.809Z,18.08
2023-07-11T02:44:43.688Z,17.97
2023-07-11T02:49:45.446Z,17.93
2023-07-11T02:54:47.168Z,17.98
2023-07-11T02:59:48.845Z,18.01
2023-07-11T03:04:52.827Z,18.01
2023-07-11T03:09:54.676Z,18.00
2023-07-11T03:14:56.372Z,17.98
2023-07-11T03:19:58.032Z,18.00
2023-07-11T03:24:59.770Z,18.04
2023-07-11T03:30:01.558Z,18.09
2023-07-11T03:35:06.877Z,18.14
2023-07-11T03:40:09.386Z,18.20
2023-07-11T03:45:11.281Z,18.22
2023-07-11T03:50:13.397Z,18.25
2023-07-11T03:55:15.281Z,18.32
2023-07-11T04:00:17.183Z,18.33
2023-07-11T04:05:19.088Z,18.28
2023-07-11T04:10:21.011Z,18.32
2023-07-11T04:15:22.735Z,18.36
2023-07-11T04:20:24.672Z,18.50
2023-07-11T04:25:26.322Z,18.66
2023-07-11T04:30:28.108Z,18.91
2023-07-11T04:35:31.083Z,19.13
2023-07-11T04:40:32.853Z,19.26
2023-07-11T04:45:35.738Z,19.39
2023-07-11T04:50:37.463Z,19.49
2023-07-11T04:55:39.271Z,19.66
2023-07-11T05:00:41.206Z,20.07
2023-07-11T05:05:42.855Z,20.22
2023-07-11T05:11:02.603Z,20.48
2023-07-11T05:16:11.514Z,20.61
2023-07-11T05:21:16.409Z,21.04
2023-07-11T05:26:18.845Z,21.76
2023-07-11T05:31:20.626Z,22.36
2023-07-11T05:36:26.830Z,24.04
2023-07-11T05:41:29.877Z,24.62
2023-07-11T05:46:32.071Z,25.58
2023-07-11T05:51:34.617Z,25.87
2023-07-11T05:56:36.357Z,25.54
2023-07-11T06:01:38.212Z,25.65
2023-07-11T06:06:43.608Z,25.31
2023-07-11T06:11:46.807Z,25.87
2023-07-11T06:16:51.134Z,26.67
2023-07-11T06:21:53.565Z,26.10
2023-07-11T06:26:55.265Z,27.23
2023-07-11T06:31:57.285Z,27.61
2023-07-11T06:36:59.061Z,26.08
2023-07-11T06:42:00.802Z,26.81
2023-07-11T06:47:02.899Z,28.90
2023-07-11T06:52:04.942Z,28.11
2023-07-11T06:57:06.854Z,28.06
2023-07-11T07:02:10.781Z,27.28
2023-07-11T07:07:12.406Z,27.54
2023-07-11T07:12:16.799Z,27.40
2023-07-11T07:17:18.722Z,27.94
2023-07-11T07:22:20.539Z,26.78
2023-07-11T07:27:28.536Z,27.02
2023-07-11T07:32:31.063Z,27.30
2023-07-11T07:37:32.885Z,26.44
2023-07-11T07:42:34.573Z,26.25
2023-07-11T07:47:36.537Z,25.93
2023-07-11T07:52:38.288Z,26.11
2023-07-11T07:57:40.463Z,25.70
2023-07-11T08:02:43.872Z,26.02
2023-07-11T08:07:45.949Z,25.85
2023-07-11T08:12:47.942Z,26.55
2023-07-11T08:17:49.634Z,26.73
2023-07-11T08:22:51.388Z,26.84
2023-07-11T08:27:53.035Z,26.60
2023-07-11T08:32:54.740Z,26.50
2023-07-11T08:37:56.621Z,26.30
2023-07-11T08:43:02.323Z,26.50
2023-07-11T08:48:28.799Z,26.59
2023-07-11T08:53:39.261Z,26.55
2023-07-11T08:58:41.730Z,26.85
2023-07-11T09:03:46.000Z,27.20
2023-07-11T09:08:48.642Z,26.68
2023-07-11T09:13:56.241Z,26.87
2023-07-11T09:19:36.741Z,26.86
2023-07-11T09:24:41.753Z,26.90
2023-07-11T09:29:46.621Z,26.56
2023-07-11T09:34:51.544Z,26.86
2023-07-11T09:39:59.208Z,27.22
2023-07-11T09:45:02.235Z,26.94
2023-07-11T09:50:38.192Z,26.99
2023-07-11T09:55:41.672Z,27.08
2023-07-11T10:00:53.193Z,27.18
2023-07-11T10:05:55.712Z,27.20
2023-07-11T10:11:03.746Z,27.12
2023-07-11T10:16:06.243Z,27.04
2023-07-11T10:21:21.939Z,27.31
2023-07-11T10:26:28.402Z,27.39
2023-07-11T10:31:39.685Z,27.31
2023-07-11T10:36:47.427Z,27.32
2023-07-11T10:42:08.228Z,27.47
2023-07-11T10:47:10.500Z,27.66
2023-07-11T10:52:26.612Z,27.57
2023-07-11T10:57:44.796Z,27.76
2023-07-11T11:03:07.862Z,27.77
2023-07-11T11:08:37.777Z,27.85
2023-07-11T11:13:46.485Z,28.17
2023-07-11T11:19:03.840Z,28.48
2023-07-11T11:24:19.370Z,28.37
2023-07-11T11:29:39.448Z,28.44
2023-07-11T11:35:15.475Z,28.53
2023-07-11T11:40:22.787Z,28.49
2023-07-11T11:55:35.497Z,28.72
2023-07-11T12:00:46.047Z,28.86
2023-07-11T12:05:53.443Z,28.80
2023-07-11T12:11:07.832Z,28.84
2023-07-11T12:16:35.904Z,28.89
2023-07-11T12:21:45.248Z,28.85
2023-07-11T12:26:47.015Z,29.18
2023-07-11T12:32:27.030Z,29.38
2023-07-11T12:37:29.156Z,29.46
2023-07-11T12:42:43.166Z,29.46
2023-07-11T12:47:49.073Z,29.69
2023-07-11T12:52:59.098Z,29.94
2023-07-11T12:58:00.770Z,29.95
2023-07-11T13:03:25.722Z,29.94
2023-07-11T13:08:32.054Z,29.99
2023-07-11T13:13:35.109Z,30.00
2023-07-11T13:18:40.224Z,30.14
2023-07-11T13:23:46.822Z,30.14
2023-07-11T13:29:02.374Z,30.11
2023-07-11T13:34:13.294Z,30.13
2023-07-11T13:39:17.305Z,30.44
2023-07-11T13:44:22.052Z,30.27
2023-07-11T13:49:27.411Z,30.24
2023-07-11T13:54:35.874Z,30.24
2023-07-11T13:59:38.847Z,30.22
2023-07-11T14:04:42.890Z,30.30
2023-07-11T14:09:44.671Z,30.62
2023-07-11T14:14:47.258Z,30.51
2023-07-11T14:19:49.006Z,30.44
2023-07-11T14:24:50.944Z,30.64
2023-07-11T14:29:53.014Z,30.64
2023-07-11T14:34:54.740Z,30.77
2023-07-11T14:39:57.660Z,30.92
2023-07-11T14:44:59.562Z,30.96
2023-07-11T14:50:05.047Z,30.95
2023-07-11T15:00:21.697Z,31.16
2023-07-11T15:10:29.026Z,30.97
2023-07-11T15:15:32.700Z,30.93
2023-07-11T15:20:34.530Z,31.07
2023-07-11T15:25:37.835Z,31.28
2023-07-11T15:30:42.791Z,31.56
2023-07-11T15:35:44.456Z,31.42
2023-07-11T15:40:46.120Z,31.40
2023-07-11T15:45:47.818Z,31.60
2023-07-11T15:50:50.920Z,31.57
2023-07-11T15:55:52.649Z,31.54
2023-07-11T16:00:54.962Z,31.50
2023-07-11T16:05:57.746Z,31.53
2023-07-11T16:11:01.656Z,31.49
2023-07-11T16:16:03.672Z,31.34
2023-07-11T16:21:05.580Z,31.16
2023-07-11T16:26:23.816Z,31.17
2023-07-11T16:31:27.200Z,31.25
2023-07-11T16:36:29.227Z,31.26
2023-07-11T16:41:30.925Z,31.24
2023-07-11T16:46:32.628Z,31.23
2023-07-11T16:51:34.364Z,31.20
2023-07-11T16:56:35.988Z,31.14
2023-07-11T17:01:37.676Z,30.98
2023-07-11T17:06:40.475Z,30.93
2023-07-11T17:11:42.137Z,30.95
2023-07-11T17:16:46.386Z,30.94
2023-07-11T17:21:48.160Z,30.80
2023-07-11T17:26:52.121Z,30.68
2023-07-11T17:31:53.803Z,30.57
2023-07-11T17:36:55.729Z,30.55
2023-07-11T17:42:05.435Z,30.45
2023-07-11T17:47:36.762Z,30.45
2023-07-11T17:52:40.378Z,30.31
2023-07-11T17:57:42.145Z,30.24
2023-07-11T18:02:58.363Z,30.20
2023-07-11T18:08:03.578Z,30.14
2023-07-11T18:13:11.336Z,30.05
2023-07-11T18:18:28.028Z,29.91
2023-07-11T18:23:29.960Z,29.77
2023-07-11T18:28:31.606Z,29.72
2023-07-11T18:33:33.342Z,29.59
2023-07-11T18:38:36.025Z,29.50
2023-07-11T18:43:37.734Z,29.36
2023-07-11T18:48:41.168Z,29.12
2023-07-11T18:53:43.713Z,28.98
2023-07-11T18:58:45.432Z,28.82
2023-07-11T19:03:47.203Z,28.72
2023-07-11T19:08:49.364Z,28.63
2023-07-11T19:13:51.221Z,28.51
2023-07-11T19:18:52.970Z,28.37
2023-07-11T19:23:54.752Z,28.24
2023-07-11T19:28:57.064Z,28.15
2023-07-11T19:33:58.716Z,27.99
2023-07-11T19:39:00.488Z,27.85
2023-07-11T19:44:02.136Z,27.71
2023-07-11T19:49:03.806Z,27.58
2023-07-11T19:54:05.501Z,27.45
2023-07-11T19:59:09.029Z,27.35
2023-07-11T20:04:10.835Z,27.24
2023-07-11T20:09:12.577Z,27.13
2023-07-11T20:14:14.720Z,27.02
2023-07-11T20:19:16.380Z,26.93
2023-07-11T20:24:18.096Z,26.86
2023-07-11T20:29:20.067Z,26.78
2023-07-11T20:34:21.771Z,26.70
2023-07-11T20:39:23.540Z,26.63
2023-07-11T20:44:25.235Z,26.61
2023-07-11T20:49:26.982Z,26.53
2023-07-11T20:54:28.668Z,26.40
2023-07-11T20:59:30.344Z,26.26
2023-07-11T21:04:32.081Z,26.18
2023-07-11T21:09:33.762Z,26.08
2023-07-11T21:14:35.400Z,25.93
2023-07-11T21:19:37.169Z,25.84
2023-07-11T21:24:38.879Z,25.73
2023-07-11T21:29:41.857Z,25.60
2023-07-11T21:34:44.991Z,25.47
2023-07-11T21:39:46.704Z,25.39
2023-07-11T21:44:48.390Z,25.26
2023-07-11T21:49:50.096Z,25.16
2023-07-11T21:54:53.328Z,25.09
2023-07-11T21:59:54.998Z,25.02
2023-07-11T22:04:57.283Z,24.93
2023-07-11T22:09:58.977Z,24.91
2023-07-11T22:15:00.621Z,24.88
2023-07-11T22:20:02.359Z,24.91
2023-07-11T22:25:05.787Z,24.95
2023-07-11T22:30:16.679Z,24.97
2023-07-11T22:35:19.116Z,24.95
2023-07-11T22:40:24.040Z,24.94
2023-07-11T22:45:26.155Z,24.91
2023-07-11T22:50:40.534Z,24.84
2023-07-11T22:55:49.571Z,24.80
2023-07-11T23:00:51.716Z,24.84
2023-07-11T23:05:57.374Z,24.84
2023-07-11T23:10:59.732Z,24.88
2023-07-11T23:16:01.425Z,24.90
2023-07-11T23:21:03.171Z,24.91
2023-07-11T23:26:13.078Z,24.92
2023-07-11T23:31:14.829Z,24.97
2023-07-11T23:36:25.484Z,25.06
2023-07-11T23:41:27.157Z,25.08
2023-07-11T23:46:30.694Z,25.07
2023-07-11T23:51:32.394Z,25.00
2023-07-11T23:56:34.104Z,24.95
